Time;durP1;ratioP1;P1;durP2;ratioP2;P2;SDS_P1;SDS_P2;PMS_P1;PMS_P2;Temp;Humidity;BMP_temperature;BMP_pressure;BME280_temperature;BME280_humidity;BME280_pressure;Samples;Min_cycle;Max_cycle;Signal;HPM_P1;HPM_P2
2021/11/10 00:01:20;;;;;;;43.95;21.60;;;;;;;0.71;100.00;102523.31;5261794;28;20132;-71
2021/11/10 00:03:50;;;;;;;53.33;24.10;;;;;;;0.69;100.00;102525.97;5262692;28;20016;-71
2021/11/10 00:06:21;;;;;;;48.45;21.95;;;;;;;0.67;100.00;102525.19;5262202;28;20029;-70
2021/11/10 00:08:51;;;;;;;43.95;21.48;;;;;;;0.67;100.00;102503.22;5262042;28;20026;-70
2021/11/10 00:11:22;;;;;;;49.80;20.35;;;;;;;0.67;100.00;102503.22;5262021;28;20024;-71
2021/11/10 00:13:52;;;;;;;46.38;19.23;;;;;;;0.67;100.00;102501.41;5262199;28;20050;-71
2021/11/10 00:16:23;;;;;;;37.35;19.02;;;;;;;0.66;100.00;102488.28;5261880;28;20512;-71
2021/11/10 00:18:55;;;;;;;42.10;21.02;;;;;;;0.67;100.00;102493.50;5261742;28;20031;-71
2021/11/10 00:21:27;;;;;;;41.05;18.67;;;;;;;0.68;100.00;102482.00;5262067;28;20028;-71
2021/11/10 00:23:58;;;;;;;43.03;20.63;;;;;;;0.78;100.00;102464.00;5261881;28;20024;-71
2021/11/10 00:26:28;;;;;;;50.15;21.85;;;;;;;0.76;100.00;102456.13;5261412;28;20027;-71
2021/11/10 00:28:59;;;;;;;52.78;23.50;;;;;;;0.78;100.00;102456.91;5261732;28;20077;-71
2021/11/10 00:31:30;;;;;;;48.67;22.13;;;;;;;0.77;100.00;102465.78;5262602;28;20024;-70
2021/11/10 00:34:00;;;;;;;52.00;22.58;;;;;;;0.72;100.00;102453.69;5262525;28;20460;-70
2021/11/10 00:36:31;;;;;;;58.00;22.88;;;;;;;0.67;100.00;102468.88;5262235;28;20032;-71
2021/11/10 00:39:02;;;;;;;86.70;21.85;;;;;;;0.63;100.00;102470.75;5243264;28;20035;-70
2021/11/10 00:41:32;;;;;;;37.55;18.95;;;;;;;0.53;100.00;102466.78;5260661;28;20020;-71
2021/11/10 00:44:03;;;;;;;44.47;20.42;;;;;;;0.46;100.00;102450.34;5261971;28;20023;-72
2021/11/10 00:46:34;;;;;;;47.38;21.30;;;;;;;0.41;100.00;102456.72;5261722;28;20028;-70
2021/11/10 00:49:05;;;;;;;47.13;22.48;;;;;;;0.36;100.00;102459.53;5261582;28;20105;-71
2021/11/10 00:51:35;;;;;;;62.60;22.73;;;;;;;0.33;100.00;102466.72;5261293;28;20028;-71
2021/11/10 00:54:06;;;;;;;46.08;20.65;;;;;;;0.26;100.00;102468.75;5261726;28;20020;-70
2021/11/10 00:56:36;;;;;;;48.58;22.20;;;;;;;0.23;100.00;102471.50;5261469;28;20149;-71
2021/11/10 00:59:07;;;;;;;49.35;22.33;;;;;;;0.20;100.00;102464.56;5265012;28;20028;-71
2021/11/10 01:01:37;;;;;;;54.15;23.05;;;;;;;0.19;100.00;102464.63;5265325;28;20020;-72
2021/11/10 01:04:07;;;;;;;40.28;19.67;;;;;;;0.21;100.00;102468.06;5265077;28;20396;-70
2021/11/10 01:06:38;;;;;;;50.42;22.85;;;;;;;0.20;100.00;102461.94;5265537;28;20032;-71
2021/11/10 01:09:16;;;;;;;46.28;22.17;;;;;;;0.18;100.00;102461.13;5264115;28;20054;-71
2021/11/10 01:11:47;;;;;;;58.63;21.02;;;;;;;0.13;100.00;102460.44;5265843;28;20122;-71
2021/11/10 01:14:19;;;;;;;39.65;17.70;;;;;;;0.08;100.00;102457.13;5265163;28;20024;-71
2021/11/10 01:16:50;;;;;;;44.25;20.85;;;;;;;0.07;100.00;102465.97;5265513;28;20024;-70
2021/11/10 01:19:20;;;;;;;44.35;20.05;;;;;;;0.06;100.00;102463.38;5264933;28;20153;-71
2021/11/10 01:21:51;;;;;;;46.92;20.38;;;;;;;0.04;100.00;102458.16;5264882;28;20024;-71
2021/11/10 01:24:22;;;;;;;47.00;19.52;;;;;;;0.03;100.00;102461.72;5265348;28;20479;-71
2021/11/10 01:26:52;;;;;;;43.13;20.67;;;;;;;0.04;100.00;102470.50;5264405;28;20024;-71
2021/11/10 01:29:23;;;;;;;48.83;22.52;;;;;;;0.04;100.00;102455.50;5264443;28;20521;-71
2021/11/10 01:31:53;;;;;;;45.17;20.15;;;;;;;0.03;100.00;102451.16;5264939;28;20024;-71
2021/11/10 01:34:24;;;;;;;41.38;19.73;;;;;;;0.01;100.00;102449.50;5264756;28;20016;-71
2021/11/10 01:36:55;;;;;;;34.33;17.13;;;;;;;-0.03;100.00;102446.13;5264419;28;20329;-71
2021/11/10 01:39:25;;;;;;;43.58;20.00;;;;;;;0.02;100.00;102460.00;5264103;28;20073;-71
2021/11/10 01:42:02;;;;;;;52.97;19.80;;;;;;;0.03;100.00;102453.78;5264507;28;20023;-71
2021/11/10 01:44:35;;;;;;;42.55;20.60;;;;;;;0.03;100.00;102460.84;5264515;28;20027;-70
2021/11/10 01:47:09;;;;;;;49.30;21.00;;;;;;;-0.02;100.00;102461.03;5264638;28;20035;-71
2021/11/10 01:49:41;;;;;;;41.08;18.42;;;;;;;-0.05;100.00;102453.22;5264152;28;20419;-72
2021/11/10 01:52:12;;;;;;;45.13;19.75;;;;;;;-0.05;100.00;102456.75;5264988;28;20282;-71
2021/11/10 01:54:43;;;;;;;52.90;20.88;;;;;;;-0.06;100.00;102465.56;5264711;28;20076;-71
2021/11/10 01:57:14;;;;;;;41.83;19.77;;;;;;;-0.09;100.00;102449.00;5264344;28;20024;-71
2021/11/10 01:59:47;;;;;;;44.85;18.17;;;;;;;-0.12;100.00;102442.06;5264015;28;20123;-71
2021/11/10 02:02:22;;;;;;;50.50;20.52;;;;;;;-0.07;100.00;102441.88;5264298;28;20377;-70
2021/11/10 02:04:53;;;;;;;55.70;20.08;;;;;;;-0.07;100.00;102437.47;5264884;28;20024;-71
2021/11/10 02:07:25;;;;;;;40.60;18.10;;;;;;;-0.09;100.00;102425.25;5263989;28;20024;-70
2021/11/10 02:09:56;;;;;;;39.80;20.75;;;;;;;-0.06;100.00;102420.69;5263907;28;20110;-70
2021/11/10 02:12:28;;;;;;;48.38;20.45;;;;;;;-0.07;100.00;102424.25;5264553;28;20548;-70
2021/11/10 02:14:59;;;;;;;53.00;21.10;;;;;;;-0.09;100.00;102422.63;5250503;28;20450;-71
2021/11/10 02:17:30;;;;;;;49.33;19.45;;;;;;;-0.14;100.00;102424.56;5264121;28;20020;-70
2021/11/10 02:20:02;;;;;;;47.35;20.38;;;;;;;-0.24;100.00;102402.09;5264252;28;20429;-71
2021/11/10 02:22:34;;;;;;;46.97;19.42;;;;;;;-0.29;100.00;102404.91;5264520;28;20283;-71
2021/11/10 02:25:08;;;;;;;45.70;18.98;;;;;;;-0.36;100.00;102406.06;5263805;28;20032;-71
2021/11/10 02:27:40;;;;;;;48.15;20.35;;;;;;;-0.39;100.00;102417.59;5263977;28;20023;-71
2021/11/10 02:30:14;;;;;;;43.72;20.17;;;;;;;-0.40;100.00;102426.44;5264520;28;20483;-73
2021/11/10 02:32:48;;;;;;;52.75;20.20;;;;;;;-0.42;100.00;102425.59;5264151;28;20129;-72
2021/11/10 02:35:22;;;;;;;47.30;20.10;;;;;;;-0.44;100.00;102421.31;5264057;28;20550;-72
2021/11/10 02:37:58;;;;;;;52.77;20.70;;;;;;;-0.39;100.00;102407.03;5263290;28;20024;-72
2021/11/10 02:40:31;;;;;;;53.03;20.55;;;;;;;-0.39;100.00;102401.78;5263652;28;20703;-71
2021/11/10 02:43:03;;;;;;;45.33;22.00;;;;;;;-0.37;100.00;102402.56;5263907;28;20081;-71
2021/11/10 02:45:34;;;;;;;50.88;20.10;;;;;;;-0.35;100.00;102398.09;5263669;28;20411;-71
2021/11/10 02:48:05;;;;;;;61.50;21.98;;;;;;;-0.32;100.00;102391.84;5263121;28;20397;-71
2021/11/10 02:50:39;;;;;;;56.10;22.10;;;;;;;-0.31;100.00;102391.78;5263433;28;20039;-71
2021/11/10 02:53:14;;;;;;;;;;;;;;;-0.37;100.00;102409.63;5264252;28;20271;-71
2021/11/10 02:55:45;;;;;;;49.47;20.02;;;;;;;-0.42;100.00;102415.06;5263661;28;20503;-71
2021/11/10 02:58:22;;;;;;;36.33;17.60;;;;;;;-0.50;100.00;102414.50;5262989;28;20265;-71
2021/11/10 03:00:52;;;;;;;46.78;19.05;;;;;;;-0.54;100.00;102412.88;5263183;28;20419;-70
2021/11/10 03:03:23;;;;;;;53.25;20.55;;;;;;;-0.54;100.00;102415.53;5263705;28;20042;-71
2021/11/10 03:05:55;;;;;;;42.28;18.52;;;;;;;-0.54;100.00;102412.88;5263213;28;20012;-70
2021/11/10 03:08:26;;;;;;;50.83;21.65;;;;;;;-0.52;100.00;102414.53;5263381;28;20028;-71
2021/11/10 03:10:57;;;;;;;47.22;20.10;;;;;;;-0.50;100.00;102426.78;5263668;28;20016;-71
2021/11/10 03:13:27;;;;;;;41.72;19.17;;;;;;;-0.56;100.00;102426.09;5263587;28;20043;-71
2021/11/10 03:15:58;;;;;;;49.05;21.05;;;;;;;-0.59;100.00;102428.00;5263563;28;20027;-70
2021/11/10 03:18:28;;;;;;;58.30;21.30;;;;;;;-0.64;100.00;102427.31;5263135;28;20036;-70
2021/11/10 03:20:59;;;;;;;37.97;18.13;;;;;;;-0.67;100.00;102424.78;5262432;28;20058;-71
2021/11/10 03:23:29;;;;;;;42.22;18.80;;;;;;;-0.67;100.00;102427.41;5262955;28;20021;-71
2021/11/10 03:26:00;;;;;;;49.80;20.23;;;;;;;-0.65;100.00;102437.00;5263155;28;20051;-70
2021/11/10 03:28:30;;;;;;;56.03;19.70;;;;;;;-0.65;100.00;102436.16;5263012;28;20332;-70
2021/11/10 03:31:01;;;;;;;42.10;18.60;;;;;;;-0.66;100.00;102434.41;5262876;28;20023;-70
2021/11/10 03:33:31;;;;;;;50.42;22.02;;;;;;;-0.65;100.00;102431.75;5262844;28;20077;-70
2021/11/10 03:36:03;;;;;;;42.72;19.75;;;;;;;-0.64;100.00;102437.88;5262759;28;20118;-71
2021/11/10 03:38:33;;;;;;;44.00;19.08;;;;;;;-0.67;100.00;102425.63;5262594;28;20110;-70
2021/11/10 03:41:04;;;;;;;37.90;18.50;;;;;;;-0.69;100.00;102434.53;5263230;28;20020;-70
2021/11/10 03:43:35;;;;;;;51.17;19.83;;;;;;;-0.67;100.00;102437.97;5262904;28;20032;-71
2021/11/10 03:46:06;;;;;;;41.40;18.73;;;;;;;-0.67;100.00;102443.22;5262884;28;20031;-70
2021/11/10 03:48:36;;;;;;;41.70;18.90;;;;;;;-0.64;100.00;102451.03;5262707;28;20043;-70
2021/11/10 03:51:07;;;;;;;48.60;20.73;;;;;;;-0.61;100.00;102453.56;5263840;28;20634;-70
2021/11/10 03:53:37;;;;;;;46.30;20.10;;;;;;;-0.61;100.00;102449.13;5263456;28;20074;-71
2021/11/10 03:56:09;;;;;;;51.45;19.13;;;;;;;-0.61;100.00;102453.56;5263760;28;20028;-70
2021/11/10 03:58:40;;;;;;;44.45;20.13;;;;;;;-0.63;100.00;102447.50;5263212;28;20028;-70
2021/11/10 04:01:13;;;;;;;50.42;19.25;;;;;;;-0.66;100.00;102455.50;5263698;28;20548;-70
2021/11/10 04:03:44;;;;;;;49.67;19.52;;;;;;;-0.69;100.00;102455.63;5251345;28;20028;-70
2021/11/10 04:06:15;;;;;;;44.08;18.92;;;;;;;-0.71;100.00;102454.78;5263515;28;20016;-71
2021/11/10 04:08:45;;;;;;;43.05;17.77;;;;;;;-0.69;100.00;102458.25;5263766;28;20038;-72
2021/11/10 04:11:18;;;;;;;43.78;19.75;;;;;;;-0.66;100.00;102458.13;5268323;28;20059;-72
2021/11/10 04:13:49;;;;;;;48.28;19.80;;;;;;;-0.56;100.00;102451.63;5275422;28;20462;-71
2021/11/10 04:16:21;;;;;;;43.13;17.75;;;;;;;-0.51;100.00;102439.13;5280242;28;20020;-72
2021/11/10 04:18:54;;;;;;;45.17;18.05;;;;;;;-0.47;100.00;102446.00;5261756;28;20028;-72
2021/11/10 04:21:25;;;;;;;53.05;19.58;;;;;;;-0.45;100.00;102448.56;5274909;28;20020;-70
2021/11/10 04:23:57;;;;;;;43.08;18.67;;;;;;;-0.45;100.00;102444.19;5274485;28;20024;-72
2021/11/10 04:26:31;;;;;;;49.22;19.70;;;;;;;-0.47;100.00;102450.41;5280684;28;20035;-70
2021/11/10 04:29:03;;;;;;;48.55;20.73;;;;;;;-0.52;100.00;102446.16;5277121;28;20079;-71
2021/11/10 04:31:33;;;;;;;47.33;17.85;;;;;;;-0.56;100.00;102435.78;5270932;28;20028;-71
2021/11/10 04:34:05;;;;;;;44.85;19.05;;;;;;;-0.54;100.00;102444.53;5270653;28;20445;-71
2021/11/10 04:36:36;;;;;;;40.28;19.33;;;;;;;-0.53;100.00;102435.69;5266022;28;20028;-70
2021/11/10 04:39:06;;;;;;;39.63;17.98;;;;;;;-0.58;100.00;102441.13;5265719;28;20020;-70
2021/11/10 04:41:37;;;;;;;51.40;19.00;;;;;;;-0.61;100.00;102456.19;5265972;28;20019;-70
2021/11/10 04:44:07;;;;;;;39.75;18.15;;;;;;;-0.64;100.00;102453.69;5266012;28;20465;-69
2021/11/10 04:46:38;;;;;;;44.30;18.52;;;;;;;-0.69;100.00;102451.22;5265682;28;20654;-69
2021/11/10 04:49:08;;;;;;;48.50;18.80;;;;;;;-0.71;100.00;102454.78;5264558;28;20032;-70
2021/11/10 04:51:39;;;;;;;52.40;19.98;;;;;;;-0.72;100.00;102463.63;5265262;28;20022;-69
2021/11/10 04:54:12;;;;;;;47.83;18.33;;;;;;;-0.73;100.00;102460.13;5265457;28;20481;-69
2021/11/10 04:56:43;;;;;;;45.45;19.00;;;;;;;-0.73;100.00;102456.63;5264952;28;20024;-70
2021/11/10 04:59:13;;;;;;;39.50;17.30;;;;;;;-0.75;100.00;102451.44;5264319;28;20456;-70
2021/11/10 05:01:44;;;;;;;40.80;18.58;;;;;;;-0.75;100.00;102445.28;5264821;28;20023;-70
2021/11/10 05:04:14;;;;;;;42.65;17.45;;;;;;;-0.73;100.00;102449.59;5265303;28;20016;-70
2021/11/10 05:06:45;;;;;;;47.72;18.65;;;;;;;-0.69;100.00;102448.56;5264853;28;20028;-70
2021/11/10 05:09:15;;;;;;;46.95;18.55;;;;;;;-0.69;100.00;102445.09;5264579;28;20404;-71
2021/11/10 05:11:46;;;;;;;53.25;18.95;;;;;;;-0.69;100.00;102447.72;5264780;28;20074;-71
2021/11/10 05:14:17;;;;;;;44.33;17.73;;;;;;;-0.72;100.00;102442.53;5265309;28;20124;-71
2021/11/10 05:16:47;;;;;;;47.17;18.00;;;;;;;-0.75;100.00;102434.72;5265339;28;20024;-71
2021/11/10 05:19:18;;;;;;;48.60;18.20;;;;;;;-0.79;100.00;102432.22;5264850;28;20401;-71
2021/11/10 05:21:50;;;;;;;40.33;17.98;;;;;;;-0.79;100.00;102431.38;5247276;28;20082;-70
2021/11/10 05:24:22;;;;;;;39.90;17.75;;;;;;;-0.79;100.00;102424.31;5264045;28;20035;-71
2021/11/10 05:26:53;;;;;;;44.40;17.95;;;;;;;-0.79;100.00;102424.31;5264601;28;20039;-71
2021/11/10 05:29:23;;;;;;;45.22;18.55;;;;;;;-0.79;100.00;102426.09;5264216;28;20427;-71
2021/11/10 05:31:54;;;;;;;48.13;17.98;;;;;;;-0.84;100.00;102425.41;5264555;28;20297;-71
2021/11/10 05:34:24;;;;;;;43.65;17.65;;;;;;;-0.88;100.00;102415.88;5264344;28;20026;-71
2021/11/10 05:36:55;;;;;;;47.53;19.48;;;;;;;-0.86;100.00;102421.94;5263732;28;20091;-71
2021/11/10 05:39:26;;;;;;;43.92;18.55;;;;;;;-0.88;100.00;102434.31;5264392;28;20504;-71
2021/11/10 05:41:56;;;;;;;52.97;19.42;;;;;;;-0.91;100.00;102429.16;5264199;28;20032;-71
2021/11/10 05:44:27;;;;;;;47.58;19.02;;;;;;;-0.94;100.00;102424.88;5263879;28;20085;-70
2021/11/10 05:46:58;;;;;;;38.33;16.95;;;;;;;-0.94;100.00;102418.72;5264118;28;20074;-71
2021/11/10 05:49:28;;;;;;;35.17;16.30;;;;;;;-0.91;100.00;102419.47;5263906;28;20123;-70
2021/11/10 05:51:58;;;;;;;40.10;16.73;;;;;;;-0.81;100.00;102420.84;5264466;28;20028;-70
2021/11/10 05:54:29;;;;;;;43.47;18.52;;;;;;;-0.83;100.00;102421.84;5264665;28;20028;-70
2021/11/10 05:57:01;;;;;;;48.63;20.77;;;;;;;-0.87;100.00;102429.00;5264883;28;20021;-70
2021/11/10 05:59:33;;;;;;;58.65;22.30;;;;;;;-0.92;100.00;102443.25;5264333;28;20165;-70
2021/11/10 06:02:04;;;;;;;46.08;20.27;;;;;;;-0.97;100.00;102445.19;5263894;28;20036;-70
2021/11/10 06:04:34;;;;;;;47.92;20.60;;;;;;;-1.03;100.00;102435.72;5263829;28;20072;-70
2021/11/10 06:07:07;;;;;;;53.70;19.40;;;;;;;-1.06;100.00;102426.13;5263975;28;20044;-69
2021/11/10 06:09:37;;;;;;;40.05;18.13;;;;;;;-1.04;100.00;102415.56;5263292;28;20039;-70
2021/11/10 06:12:08;;;;;;;53.30;19.58;;;;;;;-1.00;100.00;102414.53;5263227;28;20020;-70
2021/11/10 06:14:39;;;;;;;55.33;19.48;;;;;;;-1.00;100.00;102414.53;5245320;28;20032;-70
2021/11/10 06:17:09;;;;;;;64.95;24.38;;;;;;;-1.00;100.00;102400.47;5263654;28;20024;-70
2021/11/10 06:19:40;;;;;;;54.75;21.95;;;;;;;-1.01;100.00;102385.59;5263314;28;20119;-69
2021/11/10 06:22:10;;;;;;;41.85;16.90;;;;;;;-0.99;100.00;102350.41;5263589;28;20016;-69
2021/11/10 06:24:41;;;;;;;51.28;17.75;;;;;;;-0.83;100.00;102325.19;5263048;28;20020;-69
2021/11/10 06:27:11;;;;;;;46.47;18.27;;;;;;;-0.72;100.00;102323.94;5263138;28;20024;-70
2021/11/10 06:29:42;;;;;;;51.47;19.33;;;;;;;-0.72;100.00;102332.69;5263180;28;20402;-70
2021/11/10 06:32:12;;;;;;;53.50;18.45;;;;;;;-0.76;100.00;102356.59;5263753;28;20027;-71
2021/11/10 06:34:43;;;;;;;51.70;19.23;;;;;;;-0.84;100.00;102373.56;5263918;28;20102;-69
2021/11/10 06:37:14;;;;;;;40.90;17.30;;;;;;;-1.02;100.00;102411.09;5263944;28;20035;-69
2021/11/10 06:39:44;;;;;;;49.75;17.70;;;;;;;-1.13;100.00;102422.00;5263730;28;20393;-69
2021/11/10 06:42:15;;;;;;;48.85;15.13;;;;;;;-1.21;100.00;102436.34;5263632;28;20020;-70
2021/11/10 06:44:46;;;;;;;45.90;17.45;;;;;;;-1.26;100.00;102435.63;5245142;28;20436;-69
2021/11/10 06:47:17;;;;;;;49.22;18.90;;;;;;;-1.24;100.00;102445.22;5262827;28;20020;-68
2021/11/10 06:49:47;;;;;;;54.97;19.70;;;;;;;-1.19;100.00;102455.59;5262561;28;20030;-68
2021/11/10 06:52:18;;;;;;;61.35;20.92;;;;;;;-1.17;100.00;102459.03;5263196;28;20448;-68
2021/11/10 06:54:50;;;;;;;49.25;19.30;;;;;;;-1.11;100.00;102445.63;5261907;28;20027;-68
2021/11/10 06:57:22;;;;;;;63.75;22.05;;;;;;;-1.05;100.00;102450.72;5263087;28;20073;-68
2021/11/10 06:59:53;;;;;;;62.00;22.50;;;;;;;-0.99;100.00;102463.69;5262806;28;20051;-68
2021/11/10 07:02:23;;;;;;;73.15;23.35;;;;;;;-0.96;100.00;102453.00;5262408;28;20431;-68
2021/11/10 07:04:54;;;;;;;64.60;23.05;;;;;;;-0.91;100.00;102442.31;5262795;28;20020;-68
2021/11/10 07:07:24;;;;;;;67.63;24.17;;;;;;;-0.88;100.00;102439.59;5262340;28;20020;-68
2021/11/10 07:09:55;;;;;;;70.20;22.33;;;;;;;-0.84;100.00;102451.75;5262760;28;20055;-68
2021/11/10 07:12:25;;;;;;;57.28;21.42;;;;;;;-0.83;100.00;102456.09;5263234;28;20024;-68
2021/11/10 07:14:56;;;;;;;53.50;19.45;;;;;;;-0.80;100.00;102459.50;5262495;28;20063;-68
2021/11/10 07:17:26;;;;;;;59.42;21.88;;;;;;;-0.70;100.00;102464.41;5262822;28;20450;-68
2021/11/10 07:19:57;;;;;;;49.60;20.55;;;;;;;-0.69;100.00;102476.72;5249625;28;20016;-68
2021/11/10 07:22:27;;;;;;;59.80;23.27;;;;;;;-0.69;100.00;102472.28;5262826;28;20020;-68
2021/11/10 07:24:58;;;;;;;49.00;20.63;;;;;;;-0.60;100.00;102457.94;5261681;28;20036;-68
2021/11/10 07:27:29;;;;;;;72.97;23.02;;;;;;;-0.49;100.00;102450.50;5261789;28;20533;-68
2021/11/10 07:30:00;;;;;;;46.08;18.75;;;;;;;-0.23;100.00;102446.88;5262322;28;20044;-68
2021/11/10 07:32:30;;;;;;;47.60;18.83;;;;;;;0.10;100.00;102441.22;5262326;28;20038;-69
2021/11/10 07:35:03;;;;;;;53.05;21.70;;;;;;;0.38;100.00;102438.34;5253450;28;20024;-69
2021/11/10 07:37:33;;;;;;;52.80;20.13;;;;;;;0.51;100.00;102448.38;5259937;28;20154;-69
2021/11/10 07:40:06;;;;;;;55.28;19.58;;;;;;;0.51;100.00;102442.22;5261135;28;20106;-69
2021/11/10 07:42:36;;;;;;;46.83;19.45;;;;;;;0.41;100.00;102440.88;5260595;28;20035;-69
2021/11/10 07:45:11;;;;;;;49.47;19.02;;;;;;;0.35;100.00;102446.38;5243018;28;20020;-69
2021/11/10 07:47:42;;;;;;;50.97;19.10;;;;;;;0.33;100.00;102453.53;5247969;28;20103;-69
2021/11/10 07:50:17;;;;;;;52.20;18.77;;;;;;;0.39;100.00;102454.13;5260460;28;20032;-69
2021/11/10 07:52:48;;;;;;;45.65;19.65;;;;;;;0.58;100.00;102459.53;5261305;28;20020;-69
2021/11/10 07:55:19;;;;;;;45.05;16.05;;;;;;;0.88;100.00;102457.41;5243234;28;20024;-69
2021/11/10 07:57:50;;;;;;;37.42;16.00;;;;;;;1.08;100.00;102459.19;5261178;28;20385;-70
2021/11/10 08:00:22;;;;;;;41.92;14.93;;;;;;;1.48;100.00;102468.88;5262075;28;20359;-69
2021/11/10 08:02:53;;;;;;;29.88;14.27;;;;;;;1.73;100.00;102471.28;5242455;28;20707;-70
2021/11/10 08:05:24;;;;;;;27.05;12.52;;;;;;;1.87;100.00;102486.56;5260805;28;20023;-70
2021/11/10 08:07:54;;;;;;;30.45;11.70;;;;;;;2.03;100.00;102492.00;5265008;28;20469;-69
2021/11/10 08:10:25;;;;;;;32.50;12.90;;;;;;;2.08;100.00;102490.00;5265527;28;20377;-70
2021/11/10 08:12:55;;;;;;;29.38;14.63;;;;;;;2.18;100.00;102485.13;5263188;28;20243;-70
2021/11/10 08:15:26;;;;;;;38.65;15.02;;;;;;;2.30;100.00;102485.38;5263778;28;20028;-70
2021/11/10 08:17:57;;;;;;;37.63;14.25;;;;;;;2.48;100.00;102494.25;5263225;28;20366;-70
2021/11/10 08:20:27;;;;;;;29.60;14.05;;;;;;;2.70;100.00;102498.50;5263914;28;20501;-70
2021/11/10 08:22:58;;;;;;;41.55;14.38;;;;;;;2.70;100.00;102496.72;5264773;28;20501;-70
2021/11/10 08:25:29;;;;;;;34.70;14.98;;;;;;;2.75;100.00;102494.69;5262885;28;20023;-70
2021/11/10 08:28:00;;;;;;;34.00;15.30;;;;;;;3.01;100.00;102493.44;5262111;28;20024;-70
2021/11/10 08:30:32;;;;;;;39.65;15.38;;;;;;;3.42;100.00;102492.25;5263428;28;20324;-71
2021/11/10 08:33:02;;;;;;;28.83;14.32;;;;;;;4.07;100.00;102494.03;5264691;28;20054;-70
2021/11/10 08:35:33;;;;;;;27.75;12.90;;;;;;;4.73;100.00;102497.44;5265154;28;20035;-70
2021/11/10 08:38:04;;;;;;;26.63;12.43;;;;;;;5.18;100.00;102493.91;5267207;28;20069;-70
2021/11/10 08:40:34;;;;;;;32.33;13.45;;;;;;;5.41;100.00;102481.84;5264439;28;20658;-71
2021/11/10 08:43:09;;;;;;;35.70;14.30;;;;;;;5.36;100.00;102487.47;5265108;28;20019;-71
2021/11/10 08:45:44;;;;;;;31.38;14.45;;;;;;;5.55;100.00;102491.69;5264504;28;20016;-72
2021/11/10 08:48:15;;;;;;;33.70;14.40;;;;;;;6.05;100.00;102482.38;5264182;28;20024;-71
2021/11/10 08:50:46;;;;;;;30.73;14.27;;;;;;;6.49;100.00;102482.19;5246435;28;20031;-71
2021/11/10 08:53:21;;;;;;;26.13;13.35;;;;;;;7.04;100.00;102475.88;5264327;28;20359;-71
2021/11/10 08:55:54;;;;;;;28.80;14.17;;;;;;;7.27;100.00;102466.28;5264634;28;20088;-71
2021/11/10 08:58:26;;;;;;;29.73;13.27;;;;;;;7.97;100.00;102468.50;5246568;28;20027;-71
2021/11/10 09:00:57;;;;;;;28.90;13.52;;;;;;;8.06;100.00;102481.22;5259455;28;20024;-71
2021/11/10 09:03:28;;;;;;;23.90;12.73;;;;;;;8.42;100.00;102482.22;5263819;28;20362;-72
2021/11/10 09:05:59;;;;;;;27.58;14.32;;;;;;;8.34;100.00;102477.41;5264223;28;20036;-71
2021/11/10 09:08:31;;;;;;;25.25;13.68;;;;;;;8.51;100.00;102492.25;5264396;28;20024;-72
2021/11/10 09:11:01;;;;;;;26.88;13.73;;;;;;;8.47;100.00;102494.28;5264553;28;20024;-71
2021/11/10 09:13:32;;;;;;;30.25;13.32;;;;;;;8.31;100.00;102497.19;5263755;28;20020;-71
2021/11/10 09:16:03;;;;;;;29.13;15.27;;;;;;;7.88;100.00;102494.09;5263957;28;20035;-71
2021/11/10 09:18:33;;;;;;;30.48;14.75;;;;;;;7.86;100.00;102487.13;5245426;28;20169;-71
2021/11/10 09:21:05;;;;;;;31.25;14.65;;;;;;;8.26;100.00;102485.13;5264264;28;20028;-71
2021/11/10 09:23:36;;;;;;;29.98;13.85;;;;;;;8.54;100.00;102484.00;5242672;28;20024;-71
2021/11/10 09:26:07;;;;;;;33.25;14.45;;;;;;;8.76;100.00;102480.56;5263610;28;20354;-71
2021/11/10 09:28:37;;;;;;;28.45;12.80;;;;;;;8.55;100.00;102475.00;5263806;28;20040;-71
2021/11/10 09:31:09;;;;;;;29.63;13.40;;;;;;;8.07;100.00;102463.34;5264529;28;20135;-71
2021/11/10 09:33:41;;;;;;;30.33;14.07;;;;;;;7.55;100.00;102465.25;5263489;28;20024;-71
2021/11/10 09:36:12;;;;;;;26.23;12.98;;;;;;;7.36;100.00;102460.31;5263943;28;20051;-71
2021/11/10 09:38:42;;;;;;;34.05;12.70;;;;;;;7.69;100.00;102475.81;5245928;28;20110;-71
2021/11/10 09:41:13;;;;;;;26.05;12.52;;;;;;;8.07;100.00;102477.56;5264965;28;20058;-71
2021/11/10 09:43:44;;;;;;;25.73;12.73;;;;;;;8.23;100.00;102478.19;5262966;28;20115;-71
2021/11/10 09:46:15;;;;;;;28.00;12.73;;;;;;;8.20;100.00;102486.41;5261946;28;20032;-71
2021/11/10 09:48:46;;;;;;;33.63;13.43;;;;;;;8.12;100.00;102486.09;5244503;28;20020;-71
2021/11/10 09:51:16;;;;;;;31.45;13.27;;;;;;;7.86;100.00;102484.44;5262825;28;20032;-71
2021/11/10 09:53:47;;;;;;;35.47;16.13;;;;;;;7.90;100.00;102480.59;5244672;28;20420;-71
2021/11/10 09:56:19;;;;;;;37.33;15.75;;;;;;;8.02;100.00;102485.06;5245907;28;20107;-71
2021/11/10 09:58:51;;;;;;;39.50;17.77;;;;;;;7.93;100.00;102489.28;5244862;28;20069;-71
2021/11/10 10:01:22;;;;;;;40.33;19.15;;;;;;;7.98;100.00;102486.25;5262928;28;20720;-71
2021/11/10 10:03:55;;;;;;;43.25;19.70;;;;;;;7.86;100.00;102481.78;5263722;28;20016;-71
2021/11/10 10:06:28;;;;;;;41.67;16.90;;;;;;;7.82;100.00;102481.13;5260798;28;20024;-71
2021/11/10 10:09:00;;;;;;;36.97;17.38;;;;;;;7.95;100.00;102484.66;5261500;28;20552;-71
2021/11/10 10:11:30;;;;;;;37.50;17.30;;;;;;;8.16;100.00;102490.28;5259935;28;20058;-71
2021/11/10 10:14:01;;;;;;;31.08;14.50;;;;;;;8.11;100.00;102495.09;5259981;28;20020;-71
2021/11/10 10:16:34;;;;;;;35.58;14.55;;;;;;;8.22;100.00;102505.00;5242691;28;20016;-71
2021/11/10 10:19:08;;;;;;;30.83;14.18;;;;;;;8.02;100.00;102495.75;5259830;28;20099;-71
2021/11/10 10:21:40;;;;;;;34.15;14.57;;;;;;;7.77;100.00;102492.16;5260128;28;20500;-71
2021/11/10 10:24:14;;;;;;;36.47;14.10;;;;;;;7.57;100.00;102499.84;5259477;28;20016;-71
2021/11/10 10:26:45;;;;;;;32.08;13.70;;;;;;;7.47;100.00;102497.81;5260273;28;20023;-71
2021/11/10 10:29:17;;;;;;;33.38;13.80;;;;;;;7.44;100.00;102486.50;5259806;28;20054;-71
2021/11/10 10:31:47;;;;;;;35.88;15.50;;;;;;;7.41;100.00;102492.03;5260446;28;20445;-72
2021/11/10 10:34:18;;;;;;;39.15;13.93;;;;;;;7.48;100.00;102488.84;5259498;28;20068;-71
2021/11/10 10:36:49;;;;;;;34.63;13.93;;;;;;;7.53;100.00;102501.91;5241868;28;20111;-71
2021/11/10 10:39:20;;;;;;;42.50;14.88;;;;;;;7.64;100.00;102510.00;5260048;28;20020;-71
2021/11/10 10:41:53;;;;;;;38.65;14.40;;;;;;;7.80;100.00;102517.81;5259756;28;20034;-71
2021/11/10 10:44:27;;;;;;;37.70;15.75;;;;;;;7.90;100.00;102513.53;5260073;28;20031;-71
2021/11/10 10:47:00;;;;;;;38.00;14.82;;;;;;;7.96;100.00;102512.22;5259680;28;20028;-71
2021/11/10 10:49:38;;;;;;;35.35;15.07;;;;;;;8.04;100.00;102505.38;5259098;28;20020;-71
2021/11/10 10:52:12;;;;;;;37.35;14.95;;;;;;;8.14;100.00;102499.38;5259933;28;20107;-71
2021/11/10 10:54:45;;;;;;;36.53;15.02;;;;;;;8.40;100.00;102485.00;5259136;28;20062;-71
2021/11/10 10:58:08;;;;;;;34.20;14.60;;;;;;;8.72;100.00;102477.25;5259564;28;20123;-72
2021/11/10 11:00:41;;;;;;;33.83;13.98;;;;;;;8.94;100.00;102481.03;5259351;28;20020;-72
2021/11/10 11:03:17;;;;;;;38.40;13.13;;;;;;;8.85;100.00;102481.72;5259541;28;20681;-71
2021/11/10 11:05:48;;;;;;;39.47;13.63;;;;;;;8.83;100.00;102479.13;5258738;28;20609;-72
2021/11/10 11:08:25;;;;;;;39.28;13.50;;;;;;;8.91;100.00;102479.44;5258889;28;20111;-71
2021/11/10 11:10:58;;;;;;;33.83;13.75;;;;;;;8.89;100.00;102470.66;5260332;28;20632;-72
2021/11/10 11:13:50;;;;;;;33.13;13.93;;;;;;;8.99;100.00;102465.47;5259762;28;20023;-72
2021/11/10 11:16:21;;;;;;;33.03;13.50;;;;;;;8.96;100.00;102449.63;5259422;28;20107;-72
2021/11/10 11:19:16;;;;;;;33.72;14.65;;;;;;;9.11;100.00;102447.63;5259542;28;20123;-72
2021/11/10 11:21:51;;;;;;;37.05;13.73;;;;;;;9.23;100.00;102446.66;5258633;28;20023;-72
2021/11/10 11:24:27;;;;;;;35.33;14.13;;;;;;;9.17;100.00;102445.31;5259079;28;20165;-72